sensor_id;sensor_type;location;lat;lon;timestamp;pressure;altitude;pressure_sealevel;temperature;humidity
39613;BME280;25303;48.896;13.342;2023-03-01T00:02:23;93370.59;;;-0.76;55.64
39613;BME280;25303;48.896;13.342;2023-03-01T00:05:07;93371.03;;;-0.85;55.67
39613;BME280;25303;48.896;13.342;2023-03-01T00:07:52;93372.13;;;-0.73;55.52
39613;BME280;25303;48.896;13.342;2023-03-01T00:10:34;93365.44;;;-0.92;55.94
39613;BME280;25303;48.896;13.342;2023-03-01T00:13:17;93371.16;;;-0.88;55.67
39613;BME280;25303;48.896;13.342;2023-03-01T00:16:01;93363.91;;;-0.77;55.28
39613;BME280;25303;48.896;13.342;2023-03-01T00:18:44;93361.81;;;-0.86;55.57
39613;BME280;25303;48.896;13.342;2023-03-01T00:21:28;93365.97;;;-0.85;55.64
39613;BME280;25303;48.896;13.342;2023-03-01T00:24:11;93363.19;;;-0.81;55.32
39613;BME280;25303;48.896;13.342;2023-03-01T00:26:54;93365.09;;;-1.02;55.62
39613;BME280;25303;48.896;13.342;2023-03-01T00:29:37;93365.06;;;-0.84;55.28
39613;BME280;25303;48.896;13.342;2023-03-01T00:32:20;93365.81;;;-0.82;55.12
39613;BME280;25303;48.896;13.342;2023-03-01T00:35:03;93363.28;;;-0.82;55.20
39613;BME280;25303;48.896;13.342;2023-03-01T00:37:48;93359.34;;;-0.88;55.09
39613;BME280;25303;48.896;13.342;2023-03-01T00:40:35;93362.94;;;-0.92;55.31
39613;BME280;25303;48.896;13.342;2023-03-01T00:43:18;93355.63;;;-0.98;55.16
39613;BME280;25303;48.896;13.342;2023-03-01T00:46:01;93351.28;;;-0.95;55.25
39613;BME280;25303;48.896;13.342;2023-03-01T00:48:44;93359.59;;;-0.93;55.25
39613;BME280;25303;48.896;13.342;2023-03-01T00:51:27;93351.13;;;-0.92;55.21
39613;BME280;25303;48.896;13.342;2023-03-01T00:54:12;93347.66;;;-0.90;55.16
39613;BME280;25303;48.896;13.342;2023-03-01T00:56:54;93349.41;;;-0.91;55.11
39613;BME280;25303;48.896;13.342;2023-03-01T00:59:37;93340.09;;;-0.90;55.13
39613;BME280;25303;48.896;13.342;2023-03-01T01:02:20;93337.66;;;-0.92;55.00
39613;BME280;25303;48.896;13.342;2023-03-01T01:05:04;93330.31;;;-0.97;55.06
39613;BME280;25303;48.896;13.342;2023-03-01T01:07:47;93321.31;;;-1.02;55.08
39613;BME280;25303;48.896;13.342;2023-03-01T01:10:31;93322.44;;;-1.08;55.06
39613;BME280;25303;48.896;13.342;2023-03-01T01:13:15;93314.63;;;-1.21;55.62
39613;BME280;25303;48.896;13.342;2023-03-01T01:16:00;93309.59;;;-1.21;55.62
39613;BME280;25303;48.896;13.342;2023-03-01T01:18:43;93304.59;;;-1.23;55.66
39613;BME280;25303;48.896;13.342;2023-03-01T01:21:25;93303.31;;;-1.14;55.79
39613;BME280;25303;48.896;13.342;2023-03-01T01:24:08;93300.59;;;-1.09;55.46
39613;BME280;25303;48.896;13.342;2023-03-01T01:26:53;93293.91;;;-1.10;55.27
39613;BME280;25303;48.896;13.342;2023-03-01T01:29:35;93288.91;;;-1.12;55.19
39613;BME280;25303;48.896;13.342;2023-03-01T01:32:19;93283.94;;;-1.13;55.52
39613;BME280;25303;48.896;13.342;2023-03-01T01:35:02;93287.22;;;-1.11;55.67
39613;BME280;25303;48.896;13.342;2023-03-01T01:37:44;93285.50;;;-1.11;55.78
39613;BME280;25303;48.896;13.342;2023-03-01T01:40:27;93278.66;;;-1.09;55.54
39613;BME280;25303;48.896;13.342;2023-03-01T01:43:13;93277.75;;;-1.08;55.29
39613;BME280;25303;48.896;13.342;2023-03-01T01:45:59;93284.59;;;-1.10;55.40
39613;BME280;25303;48.896;13.342;2023-03-01T01:48:45;93279.63;;;-1.11;55.59
39613;BME280;25303;48.896;13.342;2023-03-01T01:51:31;93279.69;;;-1.13;55.39
39613;BME280;25303;48.896;13.342;2023-03-01T01:54:20;93271.38;;;-1.15;55.27
39613;BME280;25303;48.896;13.342;2023-03-01T01:57:07;93266.69;;;-1.23;55.43
39613;BME280;25303;48.896;13.342;2023-03-01T01:59:54;93269.59;;;-1.30;55.50
39613;BME280;25303;48.896;13.342;2023-03-01T02:02:40;93263.16;;;-1.36;55.41
39613;BME280;25303;48.896;13.342;2023-03-01T02:05:25;93255.72;;;-1.39;55.47
39613;BME280;25303;48.896;13.342;2023-03-01T02:08:08;93270.06;;;-1.40;55.50
39613;BME280;25303;48.896;13.342;2023-03-01T02:10:53;93265.03;;;-1.40;55.92
39613;BME280;25303;48.896;13.342;2023-03-01T02:13:37;93258.25;;;-1.39;55.92
39613;BME280;25303;48.896;13.342;2023-03-01T02:16:21;93256.59;;;-1.40;56.00
39613;BME280;25303;48.896;13.342;2023-03-01T02:19:04;93258.94;;;-1.35;55.88
39613;BME280;25303;48.896;13.342;2023-03-01T02:21:49;93247.19;;;-1.36;55.91
39613;BME280;25303;48.896;13.342;2023-03-01T02:24:37;93252.25;;;-1.36;55.89
39613;BME280;25303;48.896;13.342;2023-03-01T02:27:23;93249.56;;;-1.33;55.96
39613;BME280;25303;48.896;13.342;2023-03-01T02:30:10;93242.94;;;-1.36;55.61
39613;BME280;25303;48.896;13.342;2023-03-01T02:32:54;93244.72;;;-1.38;55.82
39613;BME280;25303;48.896;13.342;2023-03-01T02:35:38;93248.97;;;-1.39;55.89
39613;BME280;25303;48.896;13.342;2023-03-01T02:38:21;93249.78;;;-1.38;55.94
39613;BME280;25303;48.896;13.342;2023-03-01T02:41:05;93250.59;;;-1.38;55.91
39613;BME280;25303;48.896;13.342;2023-03-01T02:43:49;93246.88;;;-2.01;57.38
39613;BME280;25303;48.896;13.342;2023-03-01T02:46:33;93251.19;;;-2.22;58.28
39613;BME280;25303;48.896;13.342;2023-03-01T02:49:21;93253.47;;;-2.35;58.54
39613;BME280;25303;48.896;13.342;2023-03-01T02:52:11;93250.34;;;-2.40;59.12
39613;BME280;25303;48.896;13.342;2023-03-01T02:54:58;93243.78;;;-2.44;59.22
39613;BME280;25303;48.896;13.342;2023-03-01T02:57:44;93243.81;;;-2.63;60.16
39613;BME280;25303;48.896;13.342;2023-03-01T03:00:29;93245.16;;;-2.56;59.49
39613;BME280;25303;48.896;13.342;2023-03-01T03:03:16;93245.91;;;-2.54;59.88
39613;BME280;25303;48.896;13.342;2023-03-01T03:05:59;93245.72;;;-2.49;59.88
39613;BME280;25303;48.896;13.342;2023-03-01T03:08:44;93240.69;;;-2.49;59.84
39613;BME280;25303;48.896;13.342;2023-03-01T03:11:26;93243.34;;;-2.52;59.58
39613;BME280;25303;48.896;13.342;2023-03-01T03:14:10;93242.59;;;-2.54;59.64
39613;BME280;25303;48.896;13.342;2023-03-01T03:16:57;93237.69;;;-2.57;59.70
39613;BME280;25303;48.896;13.342;2023-03-01T03:19:41;93235.38;;;-2.62;60.00
39613;BME280;25303;48.896;13.342;2023-03-01T03:22:26;93226.38;;;-2.68;60.07
39613;BME280;25303;48.896;13.342;2023-03-01T03:25:10;93239.91;;;-2.70;60.23
39613;BME280;25303;48.896;13.342;2023-03-01T03:27:53;93235.75;;;-2.71;60.08
39613;BME280;25303;48.896;13.342;2023-03-01T03:30:39;93231.56;;;-2.71;60.00
39613;BME280;25303;48.896;13.342;2023-03-01T03:33:22;93228.19;;;-2.71;59.93
39613;BME280;25303;48.896;13.342;2023-03-01T03:36:06;93239.91;;;-2.70;60.01
39613;BME280;25303;48.896;13.342;2023-03-01T03:38:54;93234.06;;;-2.71;59.92
39613;BME280;25303;48.896;13.342;2023-03-01T03:41:36;93244.06;;;-2.69;60.03
39613;BME280;25303;48.896;13.342;2023-03-01T03:44:19;93235.72;;;-2.70;60.22
39613;BME280;25303;48.896;13.342;2023-03-01T03:47:02;93236.63;;;-2.72;60.30
39613;BME280;25303;48.896;13.342;2023-03-01T03:49:44;93237.59;;;-2.75;60.72
39613;BME280;25303;48.896;13.342;2023-03-01T03:52:28;93230.03;;;-2.75;60.67
39613;BME280;25303;48.896;13.342;2023-03-01T03:55:12;93228.41;;;-2.76;60.55
39613;BME280;25303;48.896;13.342;2023-03-01T03:57:55;93222.81;;;-2.83;60.43
39613;BME280;25303;48.896;13.342;2023-03-01T04:00:40;93223.84;;;-2.87;60.79
39613;BME280;25303;48.896;13.342;2023-03-01T04:03:23;93225.34;;;-3.02;61.30
39613;BME280;25303;48.896;13.342;2023-03-01T04:06:06;93213.44;;;-2.98;61.32
39613;BME280;25303;48.896;13.342;2023-03-01T04:08:50;93210.91;;;-2.98;61.04
39613;BME280;25303;48.896;13.342;2023-03-01T04:11:39;93209.94;;;-2.96;60.63
39613;BME280;25303;48.896;13.342;2023-03-01T04:14:22;93207.84;;;-2.86;60.32
39613;BME280;25303;48.896;13.342;2023-03-01T04:17:04;93204.97;;;-2.78;59.98
39613;BME280;25303;48.896;13.342;2023-03-01T04:19:47;93204.72;;;-2.72;59.64
39613;BME280;25303;48.896;13.342;2023-03-01T04:22:30;93207.78;;;-2.65;59.32
39613;BME280;25303;48.896;13.342;2023-03-01T04:25:14;93205.34;;;-2.67;59.27
39613;BME280;25303;48.896;13.342;2023-03-01T04:27:57;93212.59;;;-2.61;58.89
39613;BME280;25303;48.896;13.342;2023-03-01T04:30:40;93203.47;;;-2.63;58.31
39613;BME280;25303;48.896;13.342;2023-03-01T04:33:23;93199.13;;;-2.60;58.00
39613;BME280;25303;48.896;13.342;2023-03-01T04:36:06;93194.34;;;-2.47;58.21
39613;BME280;25303;48.896;13.342;2023-03-01T04:38:50;93189.75;;;-2.38;58.02
39613;BME280;25303;48.896;13.342;2023-03-01T04:41:34;93184.34;;;-2.48;56.84
39613;BME280;25303;48.896;13.342;2023-03-01T04:44:17;93196.09;;;-2.49;57.14
39613;BME280;25303;48.896;13.342;2023-03-01T04:47:00;93184.91;;;-2.43;56.32
39613;BME280;25303;48.896;13.342;2023-03-01T04:49:43;93178.94;;;-2.40;56.71
39613;BME280;25303;48.896;13.342;2023-03-01T04:52:26;93179.06;;;-2.43;55.50
39613;BME280;25303;48.896;13.342;2023-03-01T04:55:09;93177.38;;;-2.25;55.90
39613;BME280;25303;48.896;13.342;2023-03-01T04:57:53;93175.69;;;-2.25;55.61
39613;BME280;25303;48.896;13.342;2023-03-01T05:00:36;93178.13;;;-2.23;55.09
39613;BME280;25303;48.896;13.342;2023-03-01T05:03:19;93178.59;;;-2.15;54.45
39613;BME280;25303;48.896;13.342;2023-03-01T05:06:02;93173.78;;;-2.02;54.64
39613;BME280;25303;48.896;13.342;2023-03-01T05:08:45;93175.91;;;-1.94;54.23
39613;BME280;25303;48.896;13.342;2023-03-01T05:11:28;93171.56;;;-1.91;53.98
39613;BME280;25303;48.896;13.342;2023-03-01T05:14:16;93173.41;;;-1.94;53.57
39613;BME280;25303;48.896;13.342;2023-03-01T05:16:58;93178.44;;;-1.94;53.12
39613;BME280;25303;48.896;13.342;2023-03-01T05:19:45;93171.75;;;-1.78;53.43
39613;BME280;25303;48.896;13.342;2023-03-01T05:22:27;93177.03;;;-1.65;52.84
39613;BME280;25303;48.896;13.342;2023-03-01T05:25:10;93175.66;;;-1.37;52.20
39613;BME280;25303;48.896;13.342;2023-03-01T05:27:55;93167.97;;;-1.87;52.81
39613;BME280;25303;48.896;13.342;2023-03-01T05:30:39;93169.09;;;-1.92;53.29
39613;BME280;25303;48.896;13.342;2023-03-01T05:33:22;93170.06;;;-1.95;53.20
39613;BME280;25303;48.896;13.342;2023-03-01T05:36:05;93173.53;;;-1.98;53.02
39613;BME280;25303;48.896;13.342;2023-03-01T05:38:48;93169.56;;;-2.02;52.91
39613;BME280;25303;48.896;13.342;2023-03-01T05:41:31;93173.03;;;-2.04;53.44
39613;BME280;25303;48.896;13.342;2023-03-01T05:44:13;93167.22;;;-2.06;53.86
39613;BME280;25303;48.896;13.342;2023-03-01T05:46:58;93177.50;;;-2.09;54.00
39613;BME280;25303;48.896;13.342;2023-03-01T05:49:41;93185.25;;;-2.14;54.54
39613;BME280;25303;48.896;13.342;2023-03-01T05:52:23;93183.84;;;-2.20;54.92
39613;BME280;25303;48.896;13.342;2023-03-01T05:55:07;93178.13;;;-2.23;55.21
39613;BME280;25303;48.896;13.342;2023-03-01T05:57:49;93170.03;;;-2.30;55.42
39613;BME280;25303;48.896;13.342;2023-03-01T06:00:32;93176.94;;;-2.34;55.65
39613;BME280;25303;48.896;13.342;2023-03-01T06:03:17;93182.94;;;-2.36;55.75
39613;BME280;25303;48.896;13.342;2023-03-01T06:06:00;93180.41;;;-2.36;55.88
39613;BME280;25303;48.896;13.342;2023-03-01T06:08:43;93177.09;;;-2.37;55.68
39613;BME280;25303;48.896;13.342;2023-03-01T06:11:26;93172.94;;;-2.38;55.76
39613;BME280;25303;48.896;13.342;2023-03-01T06:14:08;93171.38;;;-2.40;55.84
39613;BME280;25303;48.896;13.342;2023-03-01T06:16:51;93160.53;;;-2.42;56.45
39613;BME280;25303;48.896;13.342;2023-03-01T06:19:35;93168.91;;;-2.42;56.20
39613;BME280;25303;48.896;13.342;2023-03-01T06:22:18;93169.00;;;-2.43;56.32
39613;BME280;25303;48.896;13.342;2023-03-01T06:25:01;93174.84;;;-2.43;56.32
39613;BME280;25303;48.896;13.342;2023-03-01T06:27:43;93174.84;;;-2.43;56.47
39613;BME280;25303;48.896;13.342;2023-03-01T06:30:26;93168.91;;;-2.42;56.58
39613;BME280;25303;48.896;13.342;2023-03-01T06:33:09;93178.09;;;-2.41;56.72
39613;BME280;25303;48.896;13.342;2023-03-01T06:35:55;93171.28;;;-2.39;56.88
39613;BME280;25303;48.896;13.342;2023-03-01T06:38:38;93172.03;;;-2.37;56.89
39613;BME280;25303;48.896;13.342;2023-03-01T06:41:22;93181.81;;;-2.31;57.08
39613;BME280;25303;48.896;13.342;2023-03-01T06:44:04;93178.94;;;-2.23;57.00
39613;BME280;25303;48.896;13.342;2023-03-01T06:46:47;93185.34;;;-2.16;57.32
39613;BME280;25303;48.896;13.342;2023-03-01T06:49:30;93179.13;;;-2.08;57.11
39613;BME280;25303;48.896;13.342;2023-03-01T06:52:14;93184.47;;;-1.97;57.09
39613;BME280;25303;48.896;13.342;2023-03-01T06:54:56;93186.53;;;-1.88;57.17
39613;BME280;25303;48.896;13.342;2023-03-01T06:57:39;93183.72;;;-1.81;56.49
39613;BME280;25303;48.896;13.342;2023-03-01T07:00:22;93185.13;;;-1.76;56.78
39613;BME280;25303;48.896;13.342;2023-03-01T07:03:05;93170.34;;;-1.66;56.78
39613;BME280;25303;48.896;13.342;2023-03-01T07:05:48;93174.38;;;-1.62;56.74
39613;BME280;25303;48.896;13.342;2023-03-01T07:08:32;93166.25;;;-1.51;57.07
39613;BME280;25303;48.896;13.342;2023-03-01T07:11:15;93178.13;;;-1.35;56.44
39613;BME280;25303;48.896;13.342;2023-03-01T07:13:57;93176.50;;;-1.20;56.05
39613;BME280;25303;48.896;13.342;2023-03-01T07:16:41;93168.25;;;-0.58;55.35
39613;BME280;25303;48.896;13.342;2023-03-01T07:19:24;93174.91;;;-1.05;55.50
39613;BME280;25303;48.896;13.342;2023-03-01T07:22:06;93162.19;;;-1.04;56.26
39613;BME280;25303;48.896;13.342;2023-03-01T07:24:51;93174.25;;;-0.93;56.36
39613;BME280;25303;48.896;13.342;2023-03-01T07:27:34;93176.88;;;-0.79;56.19
39613;BME280;25303;48.896;13.342;2023-03-01T07:30:17;93169.72;;;-0.70;54.51
39613;BME280;25303;48.896;13.342;2023-03-01T07:33:00;93163.84;;;-0.55;53.97
39613;BME280;25303;48.896;13.342;2023-03-01T07:35:42;93171.09;;;-0.33;52.63
39613;BME280;25303;48.896;13.342;2023-03-01T07:38:25;93174.31;;;-0.14;52.31
39613;BME280;25303;48.896;13.342;2023-03-01T07:41:09;93174.13;;;-0.11;50.54
39613;BME280;25303;48.896;13.342;2023-03-01T07:43:52;93167.69;;;-0.01;50.72
39613;BME280;25303;48.896;13.342;2023-03-01T07:46:35;93165.78;;;0.03;50.43
39613;BME280;25303;48.896;13.342;2023-03-01T07:49:17;93181.91;;;0.16;50.34
39613;BME280;25303;48.896;13.342;2023-03-01T07:52:00;93178.25;;;0.36;50.80
39613;BME280;25303;48.896;13.342;2023-03-01T07:54:43;93184.16;;;0.37;50.13
39613;BME280;25303;48.896;13.342;2023-03-01T07:57:27;93184.66;;;0.27;50.23
39613;BME280;25303;48.896;13.342;2023-03-01T08:00:10;93171.66;;;0.48;50.74
39613;BME280;25303;48.896;13.342;2023-03-01T08:02:53;93174.50;;;0.58;50.75
39613;BME280;25303;48.896;13.342;2023-03-01T08:05:36;93173.38;;;0.33;50.13
39613;BME280;25303;48.896;13.342;2023-03-01T08:08:19;93171.16;;;0.72;50.73
39613;BME280;25303;48.896;13.342;2023-03-01T08:11:02;93170.88;;;0.91;50.48
39613;BME280;25303;48.896;13.342;2023-03-01T08:13:47;93174.16;;;0.93;49.74
39613;BME280;25303;48.896;13.342;2023-03-01T08:16:34;93168.25;;;1.07;50.00
39613;BME280;25303;48.896;13.342;2023-03-01T08:19:17;93177.47;;;1.08;50.24
39613;BME280;25303;48.896;13.342;2023-03-01T08:21:59;93169.06;;;1.08;49.22
39613;BME280;25303;48.896;13.342;2023-03-01T08:24:42;93170.75;;;1.36;50.28
39613;BME280;25303;48.896;13.342;2023-03-01T08:27:25;93168.19;;;1.50;49.97
39613;BME280;25303;48.896;13.342;2023-03-01T08:30:09;93171.03;;;1.73;50.50
39613;BME280;25303;48.896;13.342;2023-03-01T08:32:52;93172.06;;;1.84;49.77
39613;BME280;25303;48.896;13.342;2023-03-01T08:35:35;93169.97;;;1.90;50.37
39613;BME280;25303;48.896;13.342;2023-03-01T08:38:18;93161.31;;;1.93;50.18
39613;BME280;25303;48.896;13.342;2023-03-01T08:41:01;93168.97;;;2.06;50.82
39613;BME280;25303;48.896;13.342;2023-03-01T08:43:44;93163.94;;;2.19;50.61
39613;BME280;25303;48.896;13.342;2023-03-01T08:46:29;93155.34;;;2.34;50.48
39613;BME280;25303;48.896;13.342;2023-03-01T08:49:13;93149.41;;;2.21;50.27
39613;BME280;25303;48.896;13.342;2023-03-01T08:51:56;93144.97;;;2.37;51.41
39613;BME280;25303;48.896;13.342;2023-03-01T08:54:39;93155.84;;;2.52;50.78
39613;BME280;25303;48.896;13.342;2023-03-01T08:57:21;93152.59;;;2.63;50.54
39613;BME280;25303;48.896;13.342;2023-03-01T09:00:05;93146.72;;;2.63;50.65
39613;BME280;25303;48.896;13.342;2023-03-01T09:02:51;93131.47;;;2.63;51.00
39613;BME280;25303;48.896;13.342;2023-03-01T09:05:34;93141.22;;;2.56;51.21
39613;BME280;25303;48.896;13.342;2023-03-01T09:08:18;93142.53;;;2.49;52.12
39613;BME280;25303;48.896;13.342;2023-03-01T09:11:01;93134.50;;;2.81;51.54
39613;BME280;25303;48.896;13.342;2023-03-01T09:13:43;93128.63;;;3.17;51.05
39613;BME280;25303;48.896;13.342;2023-03-01T09:16:26;93142.72;;;3.47;50.99
39613;BME280;25303;48.896;13.342;2023-03-01T09:19:12;93143.41;;;3.74;50.32
39613;BME280;25303;48.896;13.342;2023-03-01T09:21:55;93140.28;;;3.94;50.46
39613;BME280;25303;48.896;13.342;2023-03-01T09:24:39;93144.09;;;4.24;50.59
39613;BME280;25303;48.896;13.342;2023-03-01T09:27:22;93143.53;;;4.32;48.95
39613;BME280;25303;48.896;13.342;2023-03-01T09:30:06;93132.81;;;4.51;49.59
39613;BME280;25303;48.896;13.342;2023-03-01T09:32:49;93133.16;;;4.47;49.46
39613;BME280;25303;48.896;13.342;2023-03-01T09:35:33;93133.97;;;4.47;49.00
39613;BME280;25303;48.896;13.342;2023-03-01T09:38:16;93133.59;;;4.52;49.47
39613;BME280;25303;48.896;13.342;2023-03-01T09:40:59;93131.78;;;4.65;49.20
39613;BME280;25303;48.896;13.342;2023-03-01T09:43:43;93135.16;;;4.66;49.14
39613;BME280;25303;48.896;13.342;2023-03-01T09:46:27;93127.53;;;5.00;49.19
39613;BME280;25303;48.896;13.342;2023-03-01T09:49:11;93123.44;;;4.86;48.12
39613;BME280;25303;48.896;13.342;2023-03-01T09:52:03;93117.09;;;5.03;48.92
39613;BME280;25303;48.896;13.342;2023-03-01T09:54:47;93119.84;;;5.11;48.42
39613;BME280;25303;48.896;13.342;2023-03-01T09:57:33;93119.50;;;4.82;48.61
39613;BME280;25303;48.896;13.342;2023-03-01T10:00:21;93114.75;;;4.89;49.12
39613;BME280;25303;48.896;13.342;2023-03-01T10:03:09;93107.78;;;5.13;49.21
39613;BME280;25303;48.896;13.342;2023-03-01T10:05:56;93088.59;;;5.30;48.39
39613;BME280;25303;48.896;13.342;2023-03-01T10:08:43;93096.03;;;5.45;47.94
39613;BME280;25303;48.896;13.342;2023-03-01T10:11:32;93089.47;;;5.63;48.59
39613;BME280;25303;48.896;13.342;2023-03-01T10:14:29;93086.81;;;5.65;48.52
39613;BME280;25303;48.896;13.342;2023-03-01T10:17:15;93076.75;;;5.85;48.11
39613;BME280;25303;48.896;13.342;2023-03-01T10:20:10;93078.06;;;5.79;48.75
39613;BME280;25303;48.896;13.342;2023-03-01T10:22:57;93069.81;;;5.97;48.48
39613;BME280;25303;48.896;13.342;2023-03-01T10:25:44;93078.88;;;6.12;48.86
39613;BME280;25303;48.896;13.342;2023-03-01T10:28:30;93078.66;;;6.46;48.51
39613;BME280;25303;48.896;13.342;2023-03-01T10:31:18;93075.25;;;6.67;48.21
39613;BME280;25303;48.896;13.342;2023-03-01T10:34:04;93063.63;;;6.84;48.02
39613;BME280;25303;48.896;13.342;2023-03-01T10:36:50;93073.63;;;6.97;46.88
39613;BME280;25303;48.896;13.342;2023-03-01T10:39:33;93065.28;;;6.95;47.14
39613;BME280;25303;48.896;13.342;2023-03-01T10:42:21;93058.75;;;6.50;45.32
39613;BME280;25303;48.896;13.342;2023-03-01T10:45:16;93056.75;;;6.84;46.87
39613;BME280;25303;48.896;13.342;2023-03-01T10:48:03;93051.28;;;6.99;46.77
39613;BME280;25303;48.896;13.342;2023-03-01T10:50:46;93044.00;;;6.94;46.82
39613;BME280;25303;48.896;13.342;2023-03-01T10:53:30;93054.16;;;7.15;46.80
39613;BME280;25303;48.896;13.342;2023-03-01T10:56:14;93040.97;;;7.10;45.99
39613;BME280;25303;48.896;13.342;2023-03-01T10:59:00;93048.44;;;6.92;47.08
39613;BME280;25303;48.896;13.342;2023-03-01T11:01:42;93039.03;;;7.12;46.40
39613;BME280;25303;48.896;13.342;2023-03-01T11:04:25;93038.97;;;7.24;45.87
39613;BME280;25303;48.896;13.342;2023-03-01T11:07:08;93039.91;;;7.23;46.40
39613;BME280;25303;48.896;13.342;2023-03-01T11:09:51;93041.13;;;7.28;45.52
39613;BME280;25303;48.896;13.342;2023-03-01T11:12:33;93037.50;;;7.51;46.45
39613;BME280;25303;48.896;13.342;2023-03-01T11:15:22;93038.97;;;7.34;45.20
39613;BME280;25303;48.896;13.342;2023-03-01T11:18:05;93034.19;;;6.99;45.90
39613;BME280;25303;48.896;13.342;2023-03-01T11:21:00;93014.78;;;7.07;45.98
39613;BME280;25303;48.896;13.342;2023-03-01T11:23:43;93020.38;;;7.32;45.99
39613;BME280;25303;48.896;13.342;2023-03-01T11:26:28;93021.19;;;7.62;46.85
39613;BME280;25303;48.896;13.342;2023-03-01T11:29:16;93018.22;;;7.86;46.17
39613;BME280;25303;48.896;13.342;2023-03-01T11:32:02;93013.38;;;7.93;45.19
39613;BME280;25303;48.896;13.342;2023-03-01T11:34:47;93018.06;;;8.07;45.62
39613;BME280;25303;48.896;13.342;2023-03-01T11:37:32;93010.88;;;8.20;45.38
39613;BME280;25303;48.896;13.342;2023-03-01T11:40:20;93007.28;;;8.13;44.71
39613;BME280;25303;48.896;13.342;2023-03-01T11:43:12;92996.31;;;8.21;45.14
39613;BME280;25303;48.896;13.342;2023-03-01T11:49:05;92987.44;;;8.05;44.23
39613;BME280;25303;48.896;13.342;2023-03-01T11:51:54;92984.47;;;8.10;44.95
39613;BME280;25303;48.896;13.342;2023-03-01T11:54:46;92984.72;;;8.07;44.48
39613;BME280;25303;48.896;13.342;2023-03-01T11:57:37;92984.38;;;7.92;44.33
39613;BME280;25303;48.896;13.342;2023-03-01T12:00:31;92985.31;;;8.01;45.00
39613;BME280;25303;48.896;13.342;2023-03-01T12:03:25;92984.44;;;8.20;44.54
39613;BME280;25303;48.896;13.342;2023-03-01T12:09:26;92979.53;;;8.36;44.67
39613;BME280;25303;48.896;13.342;2023-03-01T12:15:15;92975.41;;;8.16;44.69
39613;BME280;25303;48.896;13.342;2023-03-01T12:18:13;92975.44;;;7.86;44.61
39613;BME280;25303;48.896;13.342;2023-03-01T12:21:01;92973.72;;;7.87;45.13
39613;BME280;25303;48.896;13.342;2023-03-01T12:23:53;92969.78;;;8.02;45.68
39613;BME280;25303;48.896;13.342;2023-03-01T12:26:44;92978.81;;;8.06;45.37
39613;BME280;25303;48.896;13.342;2023-03-01T12:29:30;92979.53;;;7.69;46.32
39613;BME280;25303;48.896;13.342;2023-03-01T12:32:22;92973.03;;;7.55;46.20
39613;BME280;25303;48.896;13.342;2023-03-01T12:35:16;92977.22;;;7.76;46.83
39613;BME280;25303;48.896;13.342;2023-03-01T12:38:08;92975.03;;;8.01;46.09
39613;BME280;25303;48.896;13.342;2023-03-01T12:41:02;92967.63;;;7.88;44.60
39613;BME280;25303;48.896;13.342;2023-03-01T12:43:54;92968.06;;;7.54;45.58
39613;BME280;25303;48.896;13.342;2023-03-01T12:46:47;92960.47;;;7.91;45.98
39613;BME280;25303;48.896;13.342;2023-03-01T12:49:34;92965.03;;;8.08;45.99
39613;BME280;25303;48.896;13.342;2023-03-01T12:52:21;92953.16;;;8.16;44.88
39613;BME280;25303;48.896;13.342;2023-03-01T12:55:06;92955.91;;;7.85;45.27
39613;BME280;25303;48.896;13.342;2023-03-01T12:57:51;92950.94;;;7.54;45.79
39613;BME280;25303;48.896;13.342;2023-03-01T13:00:39;92953.25;;;7.18;46.21
39613;BME280;25303;48.896;13.342;2023-03-01T13:03:25;92963.50;;;7.28;46.98
39613;BME280;25303;48.896;13.342;2023-03-01T13:06:12;92969.44;;;7.38;46.06
39613;BME280;25303;48.896;13.342;2023-03-01T13:08:58;92961.19;;;7.54;46.19
39613;BME280;25303;48.896;13.342;2023-03-01T13:11:43;92978.06;;;7.67;46.24
39613;BME280;25303;48.896;13.342;2023-03-01T13:14:34;92964.41;;;7.56;46.01
39613;BME280;25303;48.896;13.342;2023-03-01T13:17:32;92965.09;;;7.58;46.56
39613;BME280;25303;48.896;13.342;2023-03-01T13:20:15;92958.34;;;7.77;45.93
39613;BME280;25303;48.896;13.342;2023-03-01T13:23:00;92968.34;;;7.60;46.31
39613;BME280;25303;48.896;13.342;2023-03-01T13:31:55;92966.97;;;7.76;45.35
39613;BME280;25303;48.896;13.342;2023-03-01T13:37:18;92974.41;;;7.50;45.33
39613;BME280;25303;48.896;13.342;2023-03-01T13:40:03;92975.50;;;7.57;45.78
39613;BME280;25303;48.896;13.342;2023-03-01T13:42:47;92972.50;;;7.42;46.39
39613;BME280;25303;48.896;13.342;2023-03-01T13:45:51;92962.59;;;6.88;47.64
39613;BME280;25303;48.896;13.342;2023-03-01T13:48:34;92972.06;;;6.88;47.47
39613;BME280;25303;48.896;13.342;2023-03-01T13:51:21;92962.72;;;6.77;47.75
39613;BME280;25303;48.896;13.342;2023-03-01T13:54:11;92958.44;;;6.97;47.73
39613;BME280;25303;48.896;13.342;2023-03-01T13:56:55;92969.94;;;7.03;47.25
39613;BME280;25303;48.896;13.342;2023-03-01T13:59:46;92966.81;;;7.09;47.30
39613;BME280;25303;48.896;13.342;2023-03-01T14:02:31;92975.88;;;7.13;47.04
39613;BME280;25303;48.896;13.342;2023-03-01T14:05:15;92987.84;;;7.03;47.13
39613;BME280;25303;48.896;13.342;2023-03-01T14:07:58;92983.00;;;7.09;47.28
39613;BME280;25303;48.896;13.342;2023-03-01T14:10:47;92975.72;;;7.05;47.78
39613;BME280;25303;48.896;13.342;2023-03-01T14:13:47;92965.78;;;6.61;47.24
39613;BME280;25303;48.896;13.342;2023-03-01T14:16:45;92960.25;;;6.56;48.02
39613;BME280;25303;48.896;13.342;2023-03-01T14:19:33;92972.19;;;6.45;48.16
39613;BME280;25303;48.896;13.342;2023-03-01T14:22:20;92964.78;;;6.42;48.13
39613;BME280;25303;48.896;13.342;2023-03-01T14:25:14;92972.69;;;6.39;47.93
39613;BME280;25303;48.896;13.342;2023-03-01T14:28:04;92967.28;;;6.32;48.95
39613;BME280;25303;48.896;13.342;2023-03-01T14:30:56;92965.69;;;6.31;48.49
39613;BME280;25303;48.896;13.342;2023-03-01T14:33:40;92974.72;;;6.14;48.27
39613;BME280;25303;48.896;13.342;2023-03-01T14:36:27;92966.94;;;5.95;49.19
39613;BME280;25303;48.896;13.342;2023-03-01T14:39:17;92964.75;;;5.90;49.36
39613;BME280;25303;48.896;13.342;2023-03-01T14:42:00;92963.28;;;5.66;49.25
39613;BME280;25303;48.896;13.342;2023-03-01T14:44:56;92960.41;;;5.27;50.91
39613;BME280;25303;48.896;13.342;2023-03-01T14:47:40;92967.59;;;5.33;50.72